Aérodrome :
LOGIN :

S'inscrire | Disclaimer

   EN    FR    IT 

 










Légende :    VFR   VFR Marginal   IFR   IFR Intensif   IFR Très Intensif
Visi : 
Plafond : 
>= 8 km
>= 3000ft
5 à 8 km
1000 à 3000 ft
1500m à 5 km
500 à 1000 ft
800 à 1500m
200 à 500 ft
< 800m
< 200 ft
Symboles :   Orages  Brouillard  Fortes neiges  Fortes précipitations  Vent > 20 kt
SIGMETs :   Divers  Orages  Givrage  Turbulence  Onde Orograph.  Cendres Volcan.







- Altitude de l'aérodrome : 1682 ft
- Code IATA : VIT


LEVT - Vitoria Gasteiz

DERNIER METAR :
  • 251000Z 35006KT 320V030 9999 FEW010 OVC016 14/11 Q1023

METARs EXPIRÉS :
  • 250930Z 34006KT 310V020 9999 FEW010 OVC016 13/11 Q1023
  • 250900Z 34004KT 310V020 9999 FEW008 OVC015 13/11 Q1023
  • 250830Z 33005KT 300V010 9999 FEW008 OVC015 13/11 Q1022
  • 250800Z 02004KT 340V050 9999 FEW006 BKN012 OVC023 13/11 Q1022
  • 250730Z 36006KT 330V030 9999 FEW005 BKN012 OVC023 13/11 Q1022

TAF COR TAF LEVT
Valide du 25 à 06h jusqu'au 26 à 06h UTC


250539Z 2506/2606 03007KT 9999 BKN016 TX23/2514Z TN10/2506Z
TEMPO 2506/2602 BKN010
TEMPO 2506/2524 BKN008
TEMPO 2506/2508 3000 BR BKN005
PROB30
TEMPO 2506/2508 1500 BR BCFG BKN002
TEMPO 2522/2604 3000 -RA BKN008
Pas de NOTAMs connus pour ce terrain.



MET'MAP, la Météo Aéronautique d'un coup d'oeil ! - Copyright ORBIFLY Décembre 2007 - Disclaimer

ORBIFLY MET'MAP TEAM :

Programmation & Développement : Alexandra Zaïnal
Conception & Développement : Baudouin d'Aumeries
Co-Programmation & Développement : Marc-Olivier Méhu
Soutien technique & logistique : Manuel Goepfert

Contact : metmap@orbifly.com




SOURCES & CREDITS :

   NOAA